createdAt,value
2018-10-18T00:01:32.122Z,38.50
2018-10-18T00:04:01.009Z,39.10
2018-10-18T00:06:30.572Z,43.10
2018-10-18T00:09:00.033Z,39.00
2018-10-18T00:11:28.954Z,40.40
2018-10-18T00:13:58.286Z,41.08
2018-10-18T00:16:27.182Z,40.92
2018-10-18T00:18:56.074Z,42.38
2018-10-18T00:21:25.012Z,42.88
2018-10-18T00:23:53.949Z,41.40
2018-10-18T00:26:22.901Z,41.55
2018-10-18T00:28:51.858Z,43.90
2018-10-18T00:31:20.772Z,41.20
2018-10-18T00:33:49.702Z,42.30
2018-10-18T00:36:18.783Z,40.08
2018-10-18T00:38:47.827Z,40.92
2018-10-18T00:41:16.753Z,38.85
2018-10-18T00:43:45.675Z,39.05
2018-10-18T00:46:14.565Z,40.55
2018-10-18T00:48:43.452Z,41.90
2018-10-18T00:51:12.403Z,41.15
2018-10-18T00:53:41.381Z,41.15
2018-10-18T00:56:10.355Z,40.52
2018-10-18T00:58:39.301Z,41.02
2018-10-18T01:01:08.239Z,40.52
2018-10-18T01:03:37.132Z,41.00
2018-10-18T01:06:07.420Z,39.40
2018-10-18T01:08:36.307Z,41.68
2018-10-18T01:11:05.249Z,42.17
2018-10-18T01:13:34.195Z,40.52
2018-10-18T01:16:03.116Z,41.42
2018-10-18T01:18:32.022Z,40.83
2018-10-18T01:21:00.989Z,41.10
2018-10-18T01:23:29.911Z,43.58
2018-10-18T01:25:58.862Z,39.35
2018-10-18T01:28:27.886Z,41.42
2018-10-18T01:30:56.757Z,40.43
2018-10-18T01:33:25.725Z,38.48
2018-10-18T01:35:55.285Z,41.25
2018-10-18T01:38:24.199Z,42.00
2018-10-18T01:40:53.066Z,41.45
2018-10-18T01:43:22.002Z,43.20
2018-10-18T01:45:50.896Z,42.10
2018-10-18T01:48:19.780Z,41.05
2018-10-18T01:50:48.732Z,41.50
2018-10-18T01:53:17.597Z,42.50
2018-10-18T01:55:46.484Z,40.83
2018-10-18T01:58:15.438Z,41.30
2018-10-18T02:00:44.520Z,40.12
2018-10-18T02:03:13.471Z,42.53
2018-10-18T02:05:42.403Z,41.48
2018-10-18T02:08:11.402Z,39.25
2018-10-18T02:10:40.284Z,39.80
2018-10-18T02:13:09.618Z,40.60
2018-10-18T02:15:38.528Z,40.78
2018-10-18T02:18:07.617Z,40.95
2018-10-18T02:20:36.600Z,42.15
2018-10-18T02:23:05.881Z,43.17
2018-10-18T02:25:34.787Z,43.98
2018-10-18T02:28:03.995Z,41.42
2018-10-18T02:30:32.948Z,42.17
2018-10-18T02:33:01.807Z,41.45
2018-10-18T02:35:30.803Z,43.50
2018-10-18T02:37:59.691Z,41.58
2018-10-18T02:40:28.676Z,41.98
2018-10-18T02:42:57.680Z,40.80
2018-10-18T02:45:26.571Z,42.33
2018-10-18T02:47:55.538Z,42.65
2018-10-18T02:50:24.485Z,39.58
2018-10-18T02:52:53.413Z,41.83
2018-10-18T02:55:22.832Z,42.40
2018-10-18T02:57:51.762Z,43.55
2018-10-18T03:00:20.690Z,42.90
2018-10-18T03:02:49.673Z,44.77
2018-10-18T03:05:18.641Z,41.60
2018-10-18T03:07:47.538Z,44.63
2018-10-18T03:10:16.478Z,47.83
2018-10-18T03:12:45.427Z,45.67
2018-10-18T03:15:15.196Z,45.95
2018-10-18T03:17:44.090Z,45.85
2018-10-18T03:20:13.026Z,45.78
2018-10-18T03:22:41.917Z,43.25
2018-10-18T03:25:11.513Z,44.00
2018-10-18T03:27:40.675Z,45.15
2018-10-18T03:30:09.905Z,48.98
2018-10-18T03:32:38.740Z,47.25
2018-10-18T03:35:08.478Z,45.38
2018-10-18T03:37:37.460Z,46.75
2018-10-18T03:40:07.454Z,45.55
2018-10-18T03:42:36.400Z,45.23
2018-10-18T03:45:06.210Z,45.08
2018-10-18T03:47:35.105Z,42.70
2018-10-18T03:50:04.107Z,45.08
2018-10-18T03:52:33.015Z,42.00
2018-10-18T03:55:01.906Z,43.75
2018-10-18T03:57:30.918Z,43.15
2018-10-18T04:00:00.298Z,43.65
2018-10-18T04:02:29.231Z,42.43
2018-10-18T04:04:58.241Z,46.40
2018-10-18T04:07:27.180Z,45.45
2018-10-18T04:09:56.051Z,45.50
2018-10-18T04:12:24.969Z,44.18
2018-10-18T04:14:54.638Z,41.95
2018-10-18T04:17:24.069Z,41.45
2018-10-18T04:19:53.186Z,44.60
2018-10-18T04:22:22.369Z,43.45
2018-10-18T04:24:51.761Z,44.13
2018-10-18T04:27:20.811Z,46.08
2018-10-18T04:29:49.715Z,45.10
2018-10-18T04:32:18.696Z,41.02
2018-10-18T04:34:47.578Z,42.20
2018-10-18T04:37:16.453Z,41.15
2018-10-18T04:39:45.881Z,41.20
2018-10-18T04:42:14.941Z,39.15
2018-10-18T04:44:44.238Z,42.60
2018-10-18T04:47:13.224Z,42.15
2018-10-18T04:49:42.139Z,41.42
2018-10-18T04:52:11.040Z,39.70
2018-10-18T04:54:40.471Z,40.85
2018-10-18T04:57:09.967Z,41.58
2018-10-18T04:59:38.839Z,43.73
2018-10-18T05:02:07.827Z,40.35
2018-10-18T05:04:36.728Z,40.35
2018-10-18T05:07:05.730Z,42.10
2018-10-18T05:09:35.186Z,40.58
2018-10-18T05:12:04.065Z,38.50
2018-10-18T05:14:32.949Z,41.92
2018-10-18T05:17:02.094Z,39.30
2018-10-18T05:19:31.040Z,37.95
2018-10-18T05:21:59.936Z,39.90
2018-10-18T05:24:28.909Z,37.78
2018-10-18T05:26:57.823Z,36.15
2018-10-18T05:29:26.679Z,38.00
2018-10-18T05:31:55.644Z,39.00
2018-10-18T05:34:24.585Z,40.03
2018-10-18T05:36:53.527Z,38.10
2018-10-18T05:39:23.708Z,39.88
2018-10-18T05:41:52.580Z,40.65
2018-10-18T05:44:22.307Z,37.40
2018-10-18T05:46:51.391Z,38.75
2018-10-18T05:49:20.283Z,38.70
2018-10-18T05:51:49.380Z,36.93
2018-10-18T05:54:18.530Z,36.83
2018-10-18T05:56:47.395Z,39.20
2018-10-18T05:59:16.725Z,38.30
2018-10-18T06:01:45.675Z,40.35
2018-10-18T06:04:15.191Z,37.70
2018-10-18T06:06:44.108Z,38.40
2018-10-18T06:09:15.384Z,39.58
2018-10-18T06:11:44.375Z,35.03
2018-10-18T06:14:13.303Z,35.63
2018-10-18T06:16:42.241Z,36.60
2018-10-18T06:19:11.237Z,37.05
2018-10-18T06:21:40.066Z,38.48
2018-10-18T06:24:09.018Z,39.80
2018-10-18T06:26:38.617Z,35.63
2018-10-18T06:29:07.582Z,37.80
2018-10-18T06:31:36.556Z,34.92
2018-10-18T06:34:05.755Z,34.90
2018-10-18T06:36:34.635Z,30.52
2018-10-18T06:39:05.319Z,33.02
2018-10-18T06:41:34.236Z,30.92
2018-10-18T06:44:03.182Z,28.23
2018-10-18T06:46:32.330Z,33.70
2018-10-18T06:49:01.311Z,32.98
2018-10-18T06:51:30.347Z,32.05
2018-10-18T06:53:59.409Z,28.70
2018-10-18T06:56:28.375Z,32.58
2018-10-18T06:58:57.802Z,32.30
2018-10-18T07:01:27.248Z,30.40
2018-10-18T07:03:56.172Z,32.08
2018-10-18T07:06:25.080Z,30.88
2018-10-18T07:08:54.082Z,31.12
2018-10-18T07:11:23.584Z,31.15
2018-10-18T07:13:52.593Z,30.68
2018-10-18T07:16:21.564Z,30.27
2018-10-18T07:18:50.614Z,27.58
2018-10-18T07:21:19.989Z,29.25
2018-10-18T07:23:49.600Z,28.70
2018-10-18T07:26:22.578Z,28.52
2018-10-18T07:28:51.502Z,28.20
2018-10-18T07:31:21.020Z,27.10
2018-10-18T07:33:49.880Z,25.50
2018-10-18T07:36:19.239Z,25.40
2018-10-18T07:38:48.116Z,27.30
2018-10-18T07:41:17.135Z,27.80
2018-10-18T07:43:46.080Z,24.43
2018-10-18T07:46:14.987Z,25.23
2018-10-18T07:48:43.873Z,24.40
2018-10-18T07:51:12.856Z,25.95
2018-10-18T07:53:41.837Z,25.20
2018-10-18T07:56:10.715Z,25.52
2018-10-18T07:58:39.667Z,27.27
2018-10-18T08:01:08.571Z,23.52
2018-10-18T08:03:37.545Z,26.35
2018-10-18T08:06:06.507Z,23.90
2018-10-18T08:08:35.414Z,22.75
2018-10-18T08:11:05.211Z,22.10
2018-10-18T08:13:34.137Z,24.07
2018-10-18T08:16:03.092Z,24.12
2018-10-18T08:18:32.105Z,24.50
2018-10-18T08:21:01.052Z,23.40
2018-10-18T08:23:30.202Z,24.27
2018-10-18T08:25:59.138Z,27.30
2018-10-18T08:28:28.446Z,25.62
2018-10-18T08:30:57.361Z,28.15
2018-10-18T08:33:26.325Z,25.82
2018-10-18T08:35:55.284Z,29.20
2018-10-18T08:38:24.438Z,29.42
2018-10-18T08:40:53.353Z,31.70
2018-10-18T08:43:22.648Z,31.40
2018-10-18T08:45:51.835Z,34.60
2018-10-18T08:48:20.747Z,38.25
2018-10-18T08:50:49.740Z,38.70
2018-10-18T08:53:18.697Z,38.08
2018-10-18T08:55:47.660Z,37.55
2018-10-18T08:58:16.724Z,36.08
2018-10-18T09:00:45.676Z,32.08
2018-10-18T09:03:14.595Z,32.48
2018-10-18T09:05:44.092Z,31.97
2018-10-18T09:08:13.010Z,29.57
2018-10-18T09:10:41.930Z,34.33
2018-10-18T09:13:11.011Z,37.08
2018-10-18T09:15:40.313Z,33.73
2018-10-18T09:18:09.257Z,35.45
2018-10-18T09:20:38.254Z,29.15
2018-10-18T09:23:07.170Z,29.92
2018-10-18T09:25:36.089Z,27.02
2018-10-18T09:28:05.412Z,25.80
2018-10-18T09:30:34.383Z,26.97
2018-10-18T09:33:03.326Z,26.73
2018-10-18T09:35:32.382Z,28.20
2018-10-18T09:38:01.261Z,26.17
2018-10-18T09:40:30.195Z,26.27
2018-10-18T09:42:59.425Z,27.07
2018-10-18T09:45:28.323Z,28.95
2018-10-18T09:47:57.243Z,26.73
2018-10-18T09:50:26.217Z,26.40
2018-10-18T09:52:55.546Z,28.02
2018-10-18T09:55:24.579Z,28.80
2018-10-18T09:57:54.036Z,26.65
2018-10-18T10:00:28.138Z,27.80
2018-10-18T10:03:02.382Z,25.92
2018-10-18T10:05:31.504Z,26.55
2018-10-18T10:08:01.282Z,26.00
2018-10-18T10:10:30.239Z,27.45
2018-10-18T10:12:59.201Z,26.73
2018-10-18T10:15:28.127Z,27.60
2018-10-18T10:17:57.086Z,26.68
2018-10-18T10:20:26.008Z,25.90
2018-10-18T10:22:55.337Z,26.30
2018-10-18T10:25:24.287Z,24.30
2018-10-18T10:27:53.945Z,25.92
2018-10-18T10:30:22.916Z,24.52
2018-10-18T10:32:51.920Z,26.40
2018-10-18T10:35:20.934Z,24.55
2018-10-18T10:37:50.605Z,23.65
2018-10-18T10:40:19.619Z,26.12
2018-10-18T10:42:48.616Z,26.65
2018-10-18T10:45:17.582Z,23.67
2018-10-18T10:47:46.610Z,25.88
2018-10-18T10:50:15.620Z,25.52
2018-10-18T10:52:44.519Z,25.43
2018-10-18T10:55:13.615Z,25.60
2018-10-18T10:57:42.547Z,24.63
2018-10-18T11:00:11.526Z,24.45
2018-10-18T11:02:40.489Z,25.23
2018-10-18T11:05:09.480Z,23.87
2018-10-18T11:07:38.380Z,23.67
2018-10-18T11:10:07.459Z,23.00
2018-10-18T11:12:36.397Z,21.80
2018-10-18T11:15:05.815Z,22.00
2018-10-18T11:17:34.791Z,20.80
2018-10-18T11:20:03.724Z,19.40
2018-10-18T11:22:32.650Z,19.90
2018-10-18T11:25:01.691Z,21.35
2018-10-18T11:27:30.967Z,19.52
2018-10-18T11:29:59.881Z,19.25
2018-10-18T11:32:28.995Z,17.80
2018-10-18T11:34:57.884Z,18.35
2018-10-18T11:37:27.309Z,19.15
2018-10-18T11:39:56.340Z,20.50
2018-10-18T11:42:25.719Z,21.20
2018-10-18T11:44:54.613Z,20.08
2018-10-18T11:47:24.059Z,20.72
2018-10-18T11:49:52.999Z,19.20
2018-10-18T11:52:21.935Z,20.35
2018-10-18T11:54:50.873Z,20.45
2018-10-18T11:57:19.804Z,18.98
2018-10-18T11:59:48.724Z,19.57
2018-10-18T12:02:17.805Z,20.97
2018-10-18T12:04:46.760Z,20.48
2018-10-18T12:07:16.228Z,19.25
2018-10-18T12:09:45.207Z,20.32
2018-10-18T12:12:14.116Z,19.20
2018-10-18T12:14:43.010Z,19.55
2018-10-18T12:17:11.983Z,19.87
2018-10-18T12:19:41.380Z,21.95
2018-10-18T12:22:11.105Z,19.73
2018-10-18T12:24:40.001Z,19.90
2018-10-18T12:27:09.489Z,19.85
2018-10-18T12:29:38.463Z,20.32
2018-10-18T12:32:07.448Z,19.40
2018-10-18T12:34:36.312Z,18.65
2018-10-18T12:37:05.352Z,21.82
2018-10-18T12:39:34.403Z,17.32
2018-10-18T12:42:03.285Z,20.95
2018-10-18T12:44:38.149Z,20.37
2018-10-18T12:47:08.778Z,18.17
2018-10-18T12:49:38.067Z,17.32
2018-10-18T12:52:07.953Z,19.62
2018-10-18T12:54:36.992Z,20.45
2018-10-18T12:57:06.521Z,19.37
2018-10-18T12:59:35.499Z,17.05
2018-10-18T13:02:04.680Z,19.42
2018-10-18T13:04:33.640Z,18.60
2018-10-18T13:07:03.505Z,18.62
2018-10-18T13:09:32.422Z,17.80
2018-10-18T13:12:01.460Z,18.17
2018-10-18T13:14:30.818Z,15.50
2018-10-18T13:16:59.803Z,17.05
2018-10-18T13:19:28.752Z,18.23
2018-10-18T13:21:57.680Z,18.55
2018-10-18T13:24:26.607Z,18.55
2018-10-18T13:26:55.854Z,18.23
2018-10-18T13:29:24.789Z,16.55
2018-10-18T13:31:53.741Z,17.27
2018-10-18T13:34:22.745Z,20.30
2018-10-18T13:36:51.878Z,19.27
2018-10-18T13:39:20.838Z,18.90
2018-10-18T13:41:49.879Z,16.30
2018-10-18T13:44:18.941Z,16.65
2018-10-18T13:46:48.552Z,18.45
2018-10-18T13:49:18.303Z,20.20
2018-10-18T13:51:47.237Z,16.75
2018-10-18T13:54:16.459Z,16.35
2018-10-18T13:56:45.562Z,18.30
2018-10-18T13:59:25.737Z,17.02
2018-10-18T14:01:54.739Z,18.85
2018-10-18T14:04:23.659Z,19.12
2018-10-18T14:06:52.575Z,19.00
2018-10-18T14:09:23.239Z,19.40
2018-10-18T14:11:54.144Z,18.15
2018-10-18T14:14:42.243Z,21.50
2018-10-18T14:17:12.036Z,20.77
2018-10-18T14:19:41.075Z,20.25
2018-10-18T14:22:10.697Z,19.42
2018-10-18T14:24:39.663Z,18.52
2018-10-18T14:27:10.071Z,17.55
2018-10-18T14:29:39.187Z,17.82
2018-10-18T14:32:15.268Z,18.20
2018-10-18T14:34:45.673Z,18.85
2018-10-18T14:37:14.688Z,20.65
2018-10-18T14:39:43.881Z,17.80
2018-10-18T14:42:12.800Z,18.45
2018-10-18T14:44:41.807Z,18.60
2018-10-18T14:47:10.899Z,19.65
2018-10-18T14:49:39.770Z,18.67
2018-10-18T14:52:09.301Z,21.97
2018-10-18T14:54:38.888Z,20.65
2018-10-18T14:57:08.007Z,18.40
2018-10-18T14:59:37.019Z,22.80
2018-10-18T15:02:06.549Z,18.52
2018-10-18T15:04:35.734Z,18.70
2018-10-18T15:07:05.466Z,17.37
2018-10-18T15:09:34.729Z,20.05
2018-10-18T15:12:03.810Z,22.75
2018-10-18T15:14:32.787Z,24.10
2018-10-18T15:17:02.322Z,28.90
2018-10-18T15:19:35.916Z,26.77
2018-10-18T15:22:05.529Z,28.67
2018-10-18T15:24:35.155Z,28.75
2018-10-18T15:27:04.667Z,30.37
2018-10-18T15:29:33.875Z,26.45
2018-10-18T15:32:03.544Z,28.57
2018-10-18T15:34:32.589Z,28.70
2018-10-18T15:37:01.723Z,29.32
2018-10-18T15:39:30.983Z,32.23
2018-10-18T15:42:00.154Z,32.60
2018-10-18T15:44:29.442Z,34.73
2018-10-18T15:46:59.121Z,36.30
2018-10-18T15:49:28.268Z,32.53
2018-10-18T15:51:57.444Z,38.75
2018-10-18T15:54:26.659Z,37.00
2018-10-18T15:56:56.055Z,36.98
2018-10-18T15:59:25.617Z,36.28
2018-10-18T16:01:54.572Z,37.55
2018-10-18T16:04:23.837Z,38.80
2018-10-18T16:06:52.935Z,38.38
2018-10-18T16:09:22.008Z,38.10
2018-10-18T16:11:52.159Z,36.05
2018-10-18T16:14:21.466Z,37.48
2018-10-18T16:16:50.592Z,37.13
2018-10-18T16:19:19.873Z,40.30
2018-10-18T16:21:50.016Z,36.38
2018-10-18T16:24:19.439Z,34.50
2018-10-18T16:26:48.886Z,31.17
2018-10-18T16:29:18.283Z,30.45
2018-10-18T16:31:47.463Z,33.45
2018-10-18T16:34:16.653Z,29.25
2018-10-18T16:36:47.050Z,28.35
2018-10-18T16:39:16.172Z,30.32
2018-10-18T16:41:45.418Z,30.30
2018-10-18T16:44:14.482Z,28.15
2018-10-18T16:46:43.604Z,29.85
2018-10-18T16:49:12.887Z,29.65
2018-10-18T16:51:42.191Z,30.88
2018-10-18T16:54:11.357Z,30.05
2018-10-18T16:56:40.475Z,32.70
2018-10-18T16:59:09.427Z,29.50
2018-10-18T17:01:38.405Z,30.02
2018-10-18T17:04:07.557Z,32.15
2018-10-18T17:06:36.848Z,32.60
2018-10-18T17:09:08.749Z,33.73
2018-10-18T17:11:37.784Z,33.65
2018-10-18T17:14:07.028Z,32.17
2018-10-18T17:16:36.057Z,32.23
2018-10-18T17:19:05.598Z,37.13
2018-10-18T17:21:35.013Z,35.40
2018-10-18T17:24:04.193Z,36.93
2018-10-18T17:26:34.253Z,36.30
2018-10-18T17:29:03.407Z,36.48
2018-10-18T17:31:32.916Z,34.33
2018-10-18T17:34:02.383Z,37.00
2018-10-18T17:36:31.439Z,35.40
2018-10-18T17:39:00.453Z,38.75
2018-10-18T17:41:29.420Z,39.00
2018-10-18T17:43:58.983Z,40.03
2018-10-18T17:46:28.388Z,38.40
2018-10-18T17:48:57.328Z,38.45
2018-10-18T17:51:26.323Z,35.35
2018-10-18T17:53:55.918Z,36.60
2018-10-18T17:56:25.096Z,36.85
2018-10-18T17:58:54.092Z,38.90
2018-10-18T18:01:23.178Z,40.80
2018-10-18T18:03:54.946Z,41.88
2018-10-18T18:06:24.540Z,37.83
2018-10-18T18:08:53.869Z,39.50
2018-10-18T18:11:22.940Z,37.98
2018-10-18T18:13:52.030Z,39.58
2018-10-18T18:16:21.083Z,38.00
2018-10-18T18:18:50.063Z,42.70
2018-10-18T18:21:19.074Z,41.02
2018-10-18T18:23:48.184Z,40.63
2018-10-18T18:26:17.810Z,40.10
2018-10-18T18:28:46.891Z,42.93
2018-10-18T18:31:16.882Z,41.60
2018-10-18T18:33:46.069Z,38.70
2018-10-18T18:36:15.174Z,58.95
2018-10-18T18:38:44.122Z,44.53
2018-10-18T18:41:13.300Z,38.33
2018-10-18T18:43:42.443Z,41.10
2018-10-18T18:46:11.449Z,42.65
2018-10-18T18:48:40.975Z,40.05
2018-10-18T18:51:11.295Z,43.45
2018-10-18T18:53:40.907Z,38.17
2018-10-18T18:56:09.990Z,40.88
2018-10-18T18:58:39.245Z,37.42
2018-10-18T19:01:08.749Z,43.00
2018-10-18T19:03:38.134Z,40.75
2018-10-18T19:06:07.376Z,40.20
2018-10-18T19:08:36.536Z,40.60
2018-10-18T19:11:05.713Z,42.17
2018-10-18T19:13:35.666Z,40.60
2018-10-18T19:16:05.107Z,43.90
2018-10-18T19:18:34.063Z,46.30
2018-10-18T19:21:03.074Z,39.80
2018-10-18T19:23:32.085Z,43.78
2018-10-18T19:26:01.097Z,45.30
2018-10-18T19:28:30.178Z,40.85
2018-10-18T19:30:59.120Z,44.88
2018-10-18T19:33:28.702Z,46.00
2018-10-18T19:35:57.687Z,48.02
2018-10-18T19:38:26.657Z,48.20
2018-10-18T19:40:56.565Z,47.10
2018-10-18T19:43:25.803Z,47.35
2018-10-18T19:45:54.942Z,51.50
2018-10-18T19:48:27.640Z,50.70
2018-10-18T19:50:56.723Z,51.30
2018-10-18T19:53:26.110Z,50.43
2018-10-18T19:55:55.094Z,48.78
2018-10-18T19:58:26.312Z,48.98
2018-10-18T20:01:07.198Z,53.78
2018-10-18T20:03:42.638Z,51.98
2018-10-18T20:06:23.055Z,55.17
2018-10-18T20:08:52.071Z,54.50
2018-10-18T20:11:36.538Z,56.95
2018-10-18T20:14:31.377Z,55.88
2018-10-18T20:20:11.300Z,58.38
2018-10-18T20:22:58.292Z,59.25
2018-10-18T20:25:48.740Z,69.62
2018-10-18T20:28:18.328Z,66.22
2018-10-18T20:31:07.488Z,63.35
2018-10-18T20:34:01.854Z,59.60
2018-10-18T20:36:40.055Z,56.80
2018-10-18T20:39:26.534Z,55.70
2018-10-18T20:42:07.377Z,57.73
2018-10-18T20:44:43.104Z,54.23
2018-10-18T20:47:24.654Z,53.33
2018-10-18T20:50:03.335Z,55.83
2018-10-18T20:52:39.683Z,54.90
2018-10-18T20:55:18.230Z,50.80
2018-10-18T20:57:52.473Z,49.75
2018-10-18T21:00:32.040Z,50.35
2018-10-18T21:03:07.716Z,51.53
2018-10-18T21:05:43.505Z,46.80
2018-10-18T21:08:23.475Z,49.85
2018-10-18T21:11:04.260Z,50.25
2018-10-18T21:13:41.736Z,49.65
2018-10-18T21:16:20.306Z,50.88
2018-10-18T21:18:58.552Z,54.60
2018-10-18T21:21:39.071Z,55.28
2018-10-18T21:24:17.515Z,53.98
2018-10-18T21:26:55.414Z,55.23
2018-10-18T21:29:34.753Z,53.48
2018-10-18T21:32:03.763Z,54.05
2018-10-18T21:34:32.840Z,56.18
2018-10-18T21:37:02.155Z,57.10
2018-10-18T21:39:32.996Z,53.00
2018-10-18T21:42:02.754Z,52.95
2018-10-18T21:44:33.607Z,55.40
2018-10-18T21:47:02.642Z,51.98
2018-10-18T21:49:32.101Z,55.12
2018-10-18T21:52:01.454Z,51.68
2018-10-18T21:54:30.930Z,52.53
2018-10-18T21:56:59.898Z,53.85
2018-10-18T21:59:28.857Z,54.88
2018-10-18T22:01:58.666Z,54.80
2018-10-18T22:04:28.136Z,59.58
2018-10-18T22:06:57.242Z,52.75
2018-10-18T22:09:26.150Z,59.30
2018-10-18T22:11:55.067Z,59.00
2018-10-18T22:14:24.065Z,55.98
2018-10-18T22:16:53.018Z,54.63
2018-10-18T22:19:21.943Z,57.23
2018-10-18T22:21:50.947Z,59.30
2018-10-18T22:24:19.979Z,56.50
2018-10-18T22:26:48.947Z,58.40
2018-10-18T22:29:18.008Z,55.20
2018-10-18T22:31:47.423Z,60.25
2018-10-18T22:34:17.093Z,59.90
2018-10-18T22:36:46.105Z,56.77
2018-10-18T22:39:15.091Z,54.70
2018-10-18T22:41:44.048Z,55.38
2018-10-18T22:44:13.035Z,57.13
2018-10-18T22:46:41.940Z,55.17
2018-10-18T22:49:10.883Z,56.80
2018-10-18T22:51:39.984Z,55.65
2018-10-18T22:54:08.886Z,56.73
2018-10-18T22:56:38.479Z,55.85
2018-10-18T22:59:07.502Z,56.70
2018-10-18T23:01:36.398Z,52.55
2018-10-18T23:04:05.609Z,56.90
2018-10-18T23:06:34.580Z,57.48
2018-10-18T23:09:04.979Z,60.52
2018-10-18T23:11:33.908Z,56.68
2018-10-18T23:14:02.854Z,59.58
2018-10-18T23:16:32.167Z,57.48
2018-10-18T23:19:01.051Z,56.95
2018-10-18T23:21:30.020Z,58.68
2018-10-18T23:23:59.378Z,58.73
2018-10-18T23:26:28.340Z,57.85
2018-10-18T23:28:57.377Z,53.33
2018-10-18T23:31:26.443Z,60.12
2018-10-18T23:33:55.379Z,57.33
2018-10-18T23:36:24.408Z,59.08
2018-10-18T23:38:53.339Z,58.25
2018-10-18T23:41:22.258Z,61.18
2018-10-18T23:43:57.065Z,62.17
2018-10-18T23:46:26.069Z,59.35
2018-10-18T23:48:54.975Z,58.90
2018-10-18T23:51:24.263Z,59.08
2018-10-18T23:53:53.206Z,57.62
2018-10-18T23:56:22.118Z,58.87
2018-10-18T23:58:51.212Z,60.58
